sensor_id;sensor_type;location;lat;lon;timestamp;P1;durP1;ratioP1;P2;durP2;ratioP2
20336;SDS011;10326;53.660;10.200;2022-12-05T00:01:13;19.63;;;15.57;;
20336;SDS011;10326;53.660;10.200;2022-12-05T00:03:44;18.40;;;14.73;;
20336;SDS011;10326;53.660;10.200;2022-12-05T00:06:11;20.10;;;16.33;;
20336;SDS011;10326;53.660;10.200;2022-12-05T00:08:38;19.30;;;15.40;;
20336;SDS011;10326;53.660;10.200;2022-12-05T00:11:09;20.25;;;16.50;;
20336;SDS011;10326;53.660;10.200;2022-12-05T00:13:38;18.98;;;15.43;;
20336;SDS011;10326;53.660;10.200;2022-12-05T00:16:07;18.20;;;15.52;;
20336;SDS011;10326;53.660;10.200;2022-12-05T00:18:36;19.55;;;15.70;;
20336;SDS011;10326;53.660;10.200;2022-12-05T00:21:04;20.00;;;16.20;;
20336;SDS011;10326;53.660;10.200;2022-12-05T00:23:33;19.80;;;14.90;;
20336;SDS011;10326;53.660;10.200;2022-12-05T00:26:01;19.52;;;15.98;;
20336;SDS011;10326;53.660;10.200;2022-12-05T00:28:29;17.52;;;15.13;;
20336;SDS011;10326;53.660;10.200;2022-12-05T00:31:00;19.95;;;15.63;;
20336;SDS011;10326;53.660;10.200;2022-12-05T00:33:28;19.05;;;15.38;;
20336;SDS011;10326;53.660;10.200;2022-12-05T00:35:56;19.65;;;15.38;;
20336;SDS011;10326;53.660;10.200;2022-12-05T00:38:27;18.10;;;15.07;;
20336;SDS011;10326;53.660;10.200;2022-12-05T00:40:54;21.15;;;16.10;;
20336;SDS011;10326;53.660;10.200;2022-12-05T00:43:22;18.75;;;15.88;;
20336;SDS011;10326;53.660;10.200;2022-12-05T00:45:49;17.95;;;14.95;;
20336;SDS011;10326;53.660;10.200;2022-12-05T00:48:16;16.85;;;14.07;;
20336;SDS011;10326;53.660;10.200;2022-12-05T00:50:43;18.23;;;15.00;;
20336;SDS011;10326;53.660;10.200;2022-12-05T00:53:11;17.95;;;14.52;;
20336;SDS011;10326;53.660;10.200;2022-12-05T00:55:38;19.02;;;14.98;;
20336;SDS011;10326;53.660;10.200;2022-12-05T00:58:05;18.67;;;15.00;;
20336;SDS011;10326;53.660;10.200;2022-12-05T01:00:32;17.33;;;14.40;;
20336;SDS011;10326;53.660;10.200;2022-12-05T01:02:59;16.77;;;14.98;;
20336;SDS011;10326;53.660;10.200;2022-12-05T01:05:26;16.88;;;13.93;;
20336;SDS011;10326;53.660;10.200;2022-12-05T01:07:53;17.02;;;14.30;;
20336;SDS011;10326;53.660;10.200;2022-12-05T01:10:22;16.25;;;14.38;;
20336;SDS011;10326;53.660;10.200;2022-12-05T01:12:49;17.17;;;15.07;;
20336;SDS011;10326;53.660;10.200;2022-12-05T01:15:16;17.83;;;15.05;;
20336;SDS011;10326;53.660;10.200;2022-12-05T01:17:43;16.20;;;14.27;;
20336;SDS011;10326;53.660;10.200;2022-12-05T01:20:10;16.42;;;14.15;;
20336;SDS011;10326;53.660;10.200;2022-12-05T01:22:38;15.45;;;13.73;;
20336;SDS011;10326;53.660;10.200;2022-12-05T01:25:05;16.35;;;13.43;;
20336;SDS011;10326;53.660;10.200;2022-12-05T01:27:34;16.73;;;14.93;;
20336;SDS011;10326;53.660;10.200;2022-12-05T01:30:02;19.13;;;14.50;;
20336;SDS011;10326;53.660;10.200;2022-12-05T01:32:30;16.90;;;14.93;;
20336;SDS011;10326;53.660;10.200;2022-12-05T01:34:57;16.67;;;13.68;;
20336;SDS011;10326;53.660;10.200;2022-12-05T01:37:24;18.08;;;14.20;;
20336;SDS011;10326;53.660;10.200;2022-12-05T01:39:51;15.70;;;13.77;;
20336;SDS011;10326;53.660;10.200;2022-12-05T01:42:18;16.85;;;14.20;;
20336;SDS011;10326;53.660;10.200;2022-12-05T01:45:00;18.33;;;14.70;;
20336;SDS011;10326;53.660;10.200;2022-12-05T01:47:32;16.85;;;14.15;;
20336;SDS011;10326;53.660;10.200;2022-12-05T01:50:02;17.33;;;14.07;;
20336;SDS011;10326;53.660;10.200;2022-12-05T01:52:31;17.20;;;14.13;;
20336;SDS011;10326;53.660;10.200;2022-12-05T01:55:02;18.58;;;15.05;;
20336;SDS011;10326;53.660;10.200;2022-12-05T01:57:34;19.40;;;15.35;;
20336;SDS011;10326;53.660;10.200;2022-12-05T02:00:05;17.02;;;14.60;;
20336;SDS011;10326;53.660;10.200;2022-12-05T02:02:39;16.60;;;14.38;;
20336;SDS011;10326;53.660;10.200;2022-12-05T02:05:11;19.13;;;15.73;;
20336;SDS011;10326;53.660;10.200;2022-12-05T02:07:42;21.17;;;15.95;;
20336;SDS011;10326;53.660;10.200;2022-12-05T02:10:12;19.13;;;15.80;;
20336;SDS011;10326;53.660;10.200;2022-12-05T02:12:39;19.50;;;15.93;;
20336;SDS011;10326;53.660;10.200;2022-12-05T02:15:14;19.23;;;16.40;;
20336;SDS011;10326;53.660;10.200;2022-12-05T02:17:56;19.85;;;15.95;;
20336;SDS011;10326;53.660;10.200;2022-12-05T02:20:38;20.98;;;17.00;;
20336;SDS011;10326;53.660;10.200;2022-12-05T02:23:31;22.27;;;17.13;;
20336;SDS011;10326;53.660;10.200;2022-12-05T02:26:24;22.15;;;17.20;;
20336;SDS011;10326;53.660;10.200;2022-12-05T02:32:31;24.42;;;18.38;;
20336;SDS011;10326;53.660;10.200;2022-12-05T02:35:12;23.63;;;18.25;;
20336;SDS011;10326;53.660;10.200;2022-12-05T02:37:51;22.55;;;16.90;;
20336;SDS011;10326;53.660;10.200;2022-12-05T02:40:29;21.58;;;17.08;;
20336;SDS011;10326;53.660;10.200;2022-12-05T02:43:03;24.13;;;18.60;;
20336;SDS011;10326;53.660;10.200;2022-12-05T02:45:38;18.75;;;15.60;;
20336;SDS011;10326;53.660;10.200;2022-12-05T02:48:07;23.08;;;18.30;;
20336;SDS011;10326;53.660;10.200;2022-12-05T02:50:36;22.98;;;17.17;;
20336;SDS011;10326;53.660;10.200;2022-12-05T02:53:06;22.20;;;17.13;;
20336;SDS011;10326;53.660;10.200;2022-12-05T02:55:36;23.20;;;18.45;;
20336;SDS011;10326;53.660;10.200;2022-12-05T02:58:06;23.08;;;17.75;;
20336;SDS011;10326;53.660;10.200;2022-12-05T03:00:41;20.83;;;17.05;;
20336;SDS011;10326;53.660;10.200;2022-12-05T03:03:11;20.95;;;16.88;;
20336;SDS011;10326;53.660;10.200;2022-12-05T03:05:44;21.48;;;17.45;;
20336;SDS011;10326;53.660;10.200;2022-12-05T03:08:19;20.40;;;16.42;;
20336;SDS011;10326;53.660;10.200;2022-12-05T03:10:51;21.23;;;17.48;;
20336;SDS011;10326;53.660;10.200;2022-12-05T03:13:20;22.95;;;17.05;;
20336;SDS011;10326;53.660;10.200;2022-12-05T03:15:55;24.52;;;18.60;;
20336;SDS011;10326;53.660;10.200;2022-12-05T03:18:28;23.63;;;18.13;;
20336;SDS011;10326;53.660;10.200;2022-12-05T03:20:58;22.45;;;17.83;;
20336;SDS011;10326;53.660;10.200;2022-12-05T03:23:29;23.85;;;17.73;;
20336;SDS011;10326;53.660;10.200;2022-12-05T03:26:02;23.77;;;18.17;;
20336;SDS011;10326;53.660;10.200;2022-12-05T03:28:41;23.77;;;18.67;;
20336;SDS011;10326;53.660;10.200;2022-12-05T03:31:19;24.02;;;17.65;;
20336;SDS011;10326;53.660;10.200;2022-12-05T03:33:58;23.00;;;17.70;;
20336;SDS011;10326;53.660;10.200;2022-12-05T03:36:31;25.77;;;18.67;;
20336;SDS011;10326;53.660;10.200;2022-12-05T03:39:06;24.23;;;18.20;;
20336;SDS011;10326;53.660;10.200;2022-12-05T03:41:39;25.02;;;19.27;;
20336;SDS011;10326;53.660;10.200;2022-12-05T03:44:13;23.48;;;18.38;;
20336;SDS011;10326;53.660;10.200;2022-12-05T03:46:51;24.58;;;18.25;;
20336;SDS011;10326;53.660;10.200;2022-12-05T03:49:24;23.63;;;18.60;;
20336;SDS011;10326;53.660;10.200;2022-12-05T03:51:58;25.70;;;19.13;;
20336;SDS011;10326;53.660;10.200;2022-12-05T03:54:33;26.30;;;19.85;;
20336;SDS011;10326;53.660;10.200;2022-12-05T03:57:04;25.65;;;19.70;;
20336;SDS011;10326;53.660;10.200;2022-12-05T03:59:37;26.08;;;20.08;;
20336;SDS011;10326;53.660;10.200;2022-12-05T04:02:11;28.50;;;21.50;;
20336;SDS011;10326;53.660;10.200;2022-12-05T04:04:45;27.20;;;20.17;;
20336;SDS011;10326;53.660;10.200;2022-12-05T04:07:18;26.13;;;20.40;;
20336;SDS011;10326;53.660;10.200;2022-12-05T04:09:47;24.90;;;19.60;;
20336;SDS011;10326;53.660;10.200;2022-12-05T04:12:21;27.73;;;20.05;;
20336;SDS011;10326;53.660;10.200;2022-12-05T04:14:53;27.35;;;19.98;;
20336;SDS011;10326;53.660;10.200;2022-12-05T04:17:27;29.90;;;20.75;;
20336;SDS011;10326;53.660;10.200;2022-12-05T04:19:58;24.63;;;18.88;;
20336;SDS011;10326;53.660;10.200;2022-12-05T04:22:46;27.17;;;19.58;;
20336;SDS011;10326;53.660;10.200;2022-12-05T04:25:14;26.33;;;19.48;;
20336;SDS011;10326;53.660;10.200;2022-12-05T04:27:58;26.02;;;18.88;;
20336;SDS011;10326;53.660;10.200;2022-12-05T04:30:39;26.65;;;19.02;;
20336;SDS011;10326;53.660;10.200;2022-12-05T04:33:14;25.55;;;19.65;;
20336;SDS011;10326;53.660;10.200;2022-12-05T04:35:43;27.05;;;18.92;;
20336;SDS011;10326;53.660;10.200;2022-12-05T04:38:16;25.77;;;18.77;;
20336;SDS011;10326;53.660;10.200;2022-12-05T04:40:51;26.65;;;19.63;;
20336;SDS011;10326;53.660;10.200;2022-12-05T04:43:23;28.48;;;19.95;;
20336;SDS011;10326;53.660;10.200;2022-12-05T04:45:52;27.80;;;19.60;;
20336;SDS011;10326;53.660;10.200;2022-12-05T04:48:23;27.50;;;19.38;;
20336;SDS011;10326;53.660;10.200;2022-12-05T04:50:53;26.63;;;19.70;;
20336;SDS011;10326;53.660;10.200;2022-12-05T04:53:22;29.30;;;20.05;;
20336;SDS011;10326;53.660;10.200;2022-12-05T04:55:53;25.00;;;18.77;;
20336;SDS011;10326;53.660;10.200;2022-12-05T04:58:24;29.55;;;20.02;;
20336;SDS011;10326;53.660;10.200;2022-12-05T05:00:55;30.52;;;20.45;;
20336;SDS011;10326;53.660;10.200;2022-12-05T05:03:32;27.85;;;19.33;;
20336;SDS011;10326;53.660;10.200;2022-12-05T05:06:03;27.10;;;18.45;;
20336;SDS011;10326;53.660;10.200;2022-12-05T05:08:32;28.20;;;19.65;;
20336;SDS011;10326;53.660;10.200;2022-12-05T05:11:06;28.08;;;19.35;;
20336;SDS011;10326;53.660;10.200;2022-12-05T05:13:38;28.65;;;19.70;;
20336;SDS011;10326;53.660;10.200;2022-12-05T05:16:06;30.20;;;20.67;;
20336;SDS011;10326;53.660;10.200;2022-12-05T05:18:39;29.40;;;20.27;;
20336;SDS011;10326;53.660;10.200;2022-12-05T05:21:12;28.40;;;20.35;;
20336;SDS011;10326;53.660;10.200;2022-12-05T05:23:41;29.73;;;20.42;;
20336;SDS011;10326;53.660;10.200;2022-12-05T05:26:09;30.75;;;20.15;;
20336;SDS011;10326;53.660;10.200;2022-12-05T05:28:35;32.17;;;21.02;;
20336;SDS011;10326;53.660;10.200;2022-12-05T05:31:03;33.05;;;20.98;;
20336;SDS011;10326;53.660;10.200;2022-12-05T05:33:31;33.03;;;21.85;;
20336;SDS011;10326;53.660;10.200;2022-12-05T05:36:02;34.85;;;21.17;;
20336;SDS011;10326;53.660;10.200;2022-12-05T05:38:33;33.50;;;20.75;;
20336;SDS011;10326;53.660;10.200;2022-12-05T05:41:02;33.83;;;21.67;;
20336;SDS011;10326;53.660;10.200;2022-12-05T05:43:31;35.95;;;21.85;;
20336;SDS011;10326;53.660;10.200;2022-12-05T05:45:58;35.92;;;22.88;;
20336;SDS011;10326;53.660;10.200;2022-12-05T05:48:29;33.20;;;21.60;;
20336;SDS011;10326;53.660;10.200;2022-12-05T05:50:57;38.13;;;22.90;;
20336;SDS011;10326;53.660;10.200;2022-12-05T05:53:26;32.38;;;20.83;;
20336;SDS011;10326;53.660;10.200;2022-12-05T05:55:53;35.78;;;22.05;;
20336;SDS011;10326;53.660;10.200;2022-12-05T05:58:20;38.05;;;22.45;;
20336;SDS011;10326;53.660;10.200;2022-12-05T06:00:47;40.03;;;23.70;;
20336;SDS011;10326;53.660;10.200;2022-12-05T06:03:14;38.97;;;23.33;;
20336;SDS011;10326;53.660;10.200;2022-12-05T06:05:42;39.17;;;23.17;;
20336;SDS011;10326;53.660;10.200;2022-12-05T06:08:09;42.28;;;23.08;;
20336;SDS011;10326;53.660;10.200;2022-12-05T06:10:38;42.33;;;23.67;;
20336;SDS011;10326;53.660;10.200;2022-12-05T06:13:05;44.00;;;24.88;;
20336;SDS011;10326;53.660;10.200;2022-12-05T06:15:32;39.67;;;22.15;;
20336;SDS011;10326;53.660;10.200;2022-12-05T06:17:59;42.60;;;22.90;;
20336;SDS011;10326;53.660;10.200;2022-12-05T06:20:26;39.95;;;22.05;;
20336;SDS011;10326;53.660;10.200;2022-12-05T06:22:53;43.60;;;22.63;;
20336;SDS011;10326;53.660;10.200;2022-12-05T06:25:21;38.30;;;22.83;;
20336;SDS011;10326;53.660;10.200;2022-12-05T06:27:49;39.45;;;23.20;;
20336;SDS011;10326;53.660;10.200;2022-12-05T06:30:16;38.13;;;22.20;;
20336;SDS011;10326;53.660;10.200;2022-12-05T06:32:43;41.00;;;23.35;;
20336;SDS011;10326;53.660;10.200;2022-12-05T06:35:10;38.95;;;22.58;;
20336;SDS011;10326;53.660;10.200;2022-12-05T06:37:40;41.42;;;22.95;;
20336;SDS011;10326;53.660;10.200;2022-12-05T06:40:08;43.83;;;23.88;;
20336;SDS011;10326;53.660;10.200;2022-12-05T06:42:36;43.72;;;24.20;;
20336;SDS011;10326;53.660;10.200;2022-12-05T06:45:05;43.80;;;23.65;;
20336;SDS011;10326;53.660;10.200;2022-12-05T06:47:33;46.10;;;25.50;;
20336;SDS011;10326;53.660;10.200;2022-12-05T06:50:00;45.83;;;24.98;;
20336;SDS011;10326;53.660;10.200;2022-12-05T06:52:28;48.47;;;25.90;;
20336;SDS011;10326;53.660;10.200;2022-12-05T06:54:55;50.00;;;26.80;;
20336;SDS011;10326;53.660;10.200;2022-12-05T06:57:23;50.47;;;26.92;;
20336;SDS011;10326;53.660;10.200;2022-12-05T06:59:51;42.53;;;24.23;;
20336;SDS011;10326;53.660;10.200;2022-12-05T07:02:39;42.33;;;24.67;;
20336;SDS011;10326;53.660;10.200;2022-12-05T07:05:06;41.88;;;24.60;;
20336;SDS011;10326;53.660;10.200;2022-12-05T07:07:33;45.25;;;25.00;;
20336;SDS011;10326;53.660;10.200;2022-12-05T07:10:00;40.85;;;23.77;;
20336;SDS011;10326;53.660;10.200;2022-12-05T07:12:27;44.78;;;23.55;;
20336;SDS011;10326;53.660;10.200;2022-12-05T07:14:54;40.05;;;23.58;;
20336;SDS011;10326;53.660;10.200;2022-12-05T07:17:22;41.65;;;23.85;;
20336;SDS011;10326;53.660;10.200;2022-12-05T07:19:50;40.13;;;23.58;;
20336;SDS011;10326;53.660;10.200;2022-12-05T07:22:19;40.65;;;22.90;;
20336;SDS011;10326;53.660;10.200;2022-12-05T07:24:49;40.72;;;22.27;;
20336;SDS011;10326;53.660;10.200;2022-12-05T07:27:17;37.78;;;22.27;;
20336;SDS011;10326;53.660;10.200;2022-12-05T07:29:44;37.75;;;20.85;;
20336;SDS011;10326;53.660;10.200;2022-12-05T07:32:11;39.92;;;22.15;;
20336;SDS011;10326;53.660;10.200;2022-12-05T07:34:38;35.38;;;21.40;;
20336;SDS011;10326;53.660;10.200;2022-12-05T07:37:07;35.15;;;20.92;;
20336;SDS011;10326;53.660;10.200;2022-12-05T07:39:34;37.28;;;21.92;;
20336;SDS011;10326;53.660;10.200;2022-12-05T07:42:01;35.03;;;21.27;;
20336;SDS011;10326;53.660;10.200;2022-12-05T07:44:28;35.63;;;21.20;;
20336;SDS011;10326;53.660;10.200;2022-12-05T07:46:56;37.20;;;22.10;;
20336;SDS011;10326;53.660;10.200;2022-12-05T07:49:23;37.08;;;21.67;;
20336;SDS011;10326;53.660;10.200;2022-12-05T07:51:50;36.20;;;21.30;;
20336;SDS011;10326;53.660;10.200;2022-12-05T07:54:19;35.80;;;21.20;;
20336;SDS011;10326;53.660;10.200;2022-12-05T07:56:46;36.85;;;20.80;;
20336;SDS011;10326;53.660;10.200;2022-12-05T07:59:13;36.20;;;22.15;;
20336;SDS011;10326;53.660;10.200;2022-12-05T08:01:40;36.65;;;21.85;;
20336;SDS011;10326;53.660;10.200;2022-12-05T08:04:07;38.35;;;22.35;;
20336;SDS011;10326;53.660;10.200;2022-12-05T08:06:34;36.97;;;22.88;;
20336;SDS011;10326;53.660;10.200;2022-12-05T08:09:01;36.05;;;21.58;;
20336;SDS011;10326;53.660;10.200;2022-12-05T08:11:30;38.65;;;20.90;;
20336;SDS011;10326;53.660;10.200;2022-12-05T08:14:00;37.85;;;21.90;;
20336;SDS011;10326;53.660;10.200;2022-12-05T08:16:29;38.42;;;22.27;;
20336;SDS011;10326;53.660;10.200;2022-12-05T08:18:58;38.15;;;22.05;;
20336;SDS011;10326;53.660;10.200;2022-12-05T08:21:27;39.13;;;21.45;;
20336;SDS011;10326;53.660;10.200;2022-12-05T08:23:55;37.22;;;21.00;;
20336;SDS011;10326;53.660;10.200;2022-12-05T08:26:23;39.67;;;22.05;;
20336;SDS011;10326;53.660;10.200;2022-12-05T08:28:53;38.80;;;22.05;;
20336;SDS011;10326;53.660;10.200;2022-12-05T08:31:24;38.63;;;21.88;;
20336;SDS011;10326;53.660;10.200;2022-12-05T08:33:52;40.08;;;22.73;;
20336;SDS011;10326;53.660;10.200;2022-12-05T08:36:22;38.88;;;22.15;;
20336;SDS011;10326;53.660;10.200;2022-12-05T08:38:54;37.25;;;20.75;;
20336;SDS011;10326;53.660;10.200;2022-12-05T08:41:21;43.22;;;21.60;;
20336;SDS011;10326;53.660;10.200;2022-12-05T08:43:54;44.20;;;22.90;;
20336;SDS011;10326;53.660;10.200;2022-12-05T08:46:21;38.88;;;22.45;;
20336;SDS011;10326;53.660;10.200;2022-12-05T08:48:48;38.78;;;20.55;;
20336;SDS011;10326;53.660;10.200;2022-12-05T08:51:15;35.33;;;21.48;;
20336;SDS011;10326;53.660;10.200;2022-12-05T08:53:42;36.20;;;21.30;;
20336;SDS011;10326;53.660;10.200;2022-12-05T08:56:10;39.17;;;21.58;;
20336;SDS011;10326;53.660;10.200;2022-12-05T08:58:38;38.47;;;22.25;;
20336;SDS011;10326;53.660;10.200;2022-12-05T09:01:08;40.80;;;22.33;;
20336;SDS011;10326;53.660;10.200;2022-12-05T09:03:37;41.85;;;22.98;;
20336;SDS011;10326;53.660;10.200;2022-12-05T09:06:05;41.40;;;22.67;;
20336;SDS011;10326;53.660;10.200;2022-12-05T09:08:33;40.08;;;23.10;;
20336;SDS011;10326;53.660;10.200;2022-12-05T09:11:03;42.03;;;22.80;;
20336;SDS011;10326;53.660;10.200;2022-12-05T09:13:31;38.58;;;21.83;;
20336;SDS011;10326;53.660;10.200;2022-12-05T09:16:03;40.03;;;22.30;;
20336;SDS011;10326;53.660;10.200;2022-12-05T09:18:33;37.28;;;21.25;;
20336;SDS011;10326;53.660;10.200;2022-12-05T09:21:05;38.63;;;20.83;;
20336;SDS011;10326;53.660;10.200;2022-12-05T09:23:34;40.40;;;20.95;;
20336;SDS011;10326;53.660;10.200;2022-12-05T09:26:01;36.15;;;21.13;;
20336;SDS011;10326;53.660;10.200;2022-12-05T09:28:29;38.03;;;21.63;;
20336;SDS011;10326;53.660;10.200;2022-12-05T09:30:58;37.00;;;21.90;;
20336;SDS011;10326;53.660;10.200;2022-12-05T09:33:27;39.45;;;20.75;;
20336;SDS011;10326;53.660;10.200;2022-12-05T09:35:56;38.70;;;21.90;;
20336;SDS011;10326;53.660;10.200;2022-12-05T09:38:24;34.45;;;19.83;;
20336;SDS011;10326;53.660;10.200;2022-12-05T09:40:53;37.10;;;20.13;;
20336;SDS011;10326;53.660;10.200;2022-12-05T09:43:32;35.75;;;19.20;;
20336;SDS011;10326;53.660;10.200;2022-12-05T09:46:11;31.88;;;19.02;;
20336;SDS011;10326;53.660;10.200;2022-12-05T09:48:52;35.42;;;20.52;;
20336;SDS011;10326;53.660;10.200;2022-12-05T09:51:24;31.55;;;18.95;;
20336;SDS011;10326;53.660;10.200;2022-12-05T09:53:52;33.55;;;19.20;;
20336;SDS011;10326;53.660;10.200;2022-12-05T09:56:22;34.75;;;19.13;;
20336;SDS011;10326;53.660;10.200;2022-12-05T09:58:55;36.25;;;19.05;;
20336;SDS011;10326;53.660;10.200;2022-12-05T10:01:26;34.72;;;19.50;;
20336;SDS011;10326;53.660;10.200;2022-12-05T10:04:11;37.08;;;19.45;;
20336;SDS011;10326;53.660;10.200;2022-12-05T10:06:53;37.22;;;20.27;;
20336;SDS011;10326;53.660;10.200;2022-12-05T10:09:32;32.22;;;18.30;;
20336;SDS011;10326;53.660;10.200;2022-12-05T10:12:15;31.13;;;18.98;;
20336;SDS011;10326;53.660;10.200;2022-12-05T10:15:01;32.10;;;18.25;;
20336;SDS011;10326;53.660;10.200;2022-12-05T10:17:38;36.33;;;20.13;;
20336;SDS011;10326;53.660;10.200;2022-12-05T10:20:11;32.28;;;18.85;;
20336;SDS011;10326;53.660;10.200;2022-12-05T10:22:44;33.13;;;19.30;;
20336;SDS011;10326;53.660;10.200;2022-12-05T10:25:16;30.35;;;18.48;;
20336;SDS011;10326;53.660;10.200;2022-12-05T10:27:47;30.33;;;18.48;;
20336;SDS011;10326;53.660;10.200;2022-12-05T10:30:17;30.83;;;18.02;;
20336;SDS011;10326;53.660;10.200;2022-12-05T10:32:50;33.15;;;19.83;;
20336;SDS011;10326;53.660;10.200;2022-12-05T10:35:20;31.35;;;19.02;;
20336;SDS011;10326;53.660;10.200;2022-12-05T10:37:51;28.65;;;17.88;;
20336;SDS011;10326;53.660;10.200;2022-12-05T10:40:20;30.08;;;18.95;;
20336;SDS011;10326;53.660;10.200;2022-12-05T10:42:58;29.48;;;19.05;;
20336;SDS011;10326;53.660;10.200;2022-12-05T10:45:25;28.90;;;17.95;;
20336;SDS011;10326;53.660;10.200;2022-12-05T10:47:54;29.20;;;18.52;;
20336;SDS011;10326;53.660;10.200;2022-12-05T10:50:24;28.27;;;18.15;;
20336;SDS011;10326;53.660;10.200;2022-12-05T10:52:57;30.13;;;18.25;;
20336;SDS011;10326;53.660;10.200;2022-12-05T10:55:29;25.35;;;16.25;;
20336;SDS011;10326;53.660;10.200;2022-12-05T10:58:10;29.20;;;17.33;;
20336;SDS011;10326;53.660;10.200;2022-12-05T11:00:38;29.52;;;18.48;;
20336;SDS011;10326;53.660;10.200;2022-12-05T11:03:22;30.20;;;18.80;;
20336;SDS011;10326;53.660;10.200;2022-12-05T11:05:53;26.25;;;17.73;;
20336;SDS011;10326;53.660;10.200;2022-12-05T11:08:24;26.90;;;18.23;;
20336;SDS011;10326;53.660;10.200;2022-12-05T11:10:59;26.92;;;17.25;;
20336;SDS011;10326;53.660;10.200;2022-12-05T11:13:28;25.33;;;17.35;;
20336;SDS011;10326;53.660;10.200;2022-12-05T11:15:56;27.50;;;17.65;;
20336;SDS011;10326;53.660;10.200;2022-12-05T11:18:28;25.75;;;18.13;;
20336;SDS011;10326;53.660;10.200;2022-12-05T11:21:07;27.27;;;17.65;;
20336;SDS011;10326;53.660;10.200;2022-12-05T11:23:37;28.42;;;17.58;;
20336;SDS011;10326;53.660;10.200;2022-12-05T11:26:13;26.58;;;17.65;;
20336;SDS011;10326;53.660;10.200;2022-12-05T11:28:45;26.98;;;16.80;;
20336;SDS011;10326;53.660;10.200;2022-12-05T11:31:24;26.02;;;17.60;;
20336;SDS011;10326;53.660;10.200;2022-12-05T11:33:59;25.95;;;17.25;;
20336;SDS011;10326;53.660;10.200;2022-12-05T11:36:34;25.52;;;17.25;;
20336;SDS011;10326;53.660;10.200;2022-12-05T11:39:07;24.65;;;16.95;;
20336;SDS011;10326;53.660;10.200;2022-12-05T11:41:40;24.27;;;16.88;;
20336;SDS011;10326;53.660;10.200;2022-12-05T11:44:31;23.95;;;16.65;;
20336;SDS011;10326;53.660;10.200;2022-12-05T11:47:35;24.63;;;16.83;;
20336;SDS011;10326;53.660;10.200;2022-12-05T11:50:18;21.92;;;16.48;;
20336;SDS011;10326;53.660;10.200;2022-12-05T11:52:56;22.98;;;16.27;;
20336;SDS011;10326;53.660;10.200;2022-12-05T11:55:41;24.27;;;16.38;;
20336;SDS011;10326;53.660;10.200;2022-12-05T11:58:20;22.77;;;16.13;;
20336;SDS011;10326;53.660;10.200;2022-12-05T12:01:07;21.95;;;15.95;;
20336;SDS011;10326;53.660;10.200;2022-12-05T12:03:50;21.90;;;15.25;;
20336;SDS011;10326;53.660;10.200;2022-12-05T12:07:01;22.50;;;16.60;;
20336;SDS011;10326;53.660;10.200;2022-12-05T12:09:46;23.55;;;16.88;;
20336;SDS011;10326;53.660;10.200;2022-12-05T12:12:25;22.92;;;16.80;;
20336;SDS011;10326;53.660;10.200;2022-12-05T12:15:07;22.58;;;15.73;;
20336;SDS011;10326;53.660;10.200;2022-12-05T12:17:58;22.45;;;16.55;;
20336;SDS011;10326;53.660;10.200;2022-12-05T12:20:38;22.25;;;15.88;;
20336;SDS011;10326;53.660;10.200;2022-12-05T12:23:28;25.45;;;17.30;;
20336;SDS011;10326;53.660;10.200;2022-12-05T12:26:08;21.17;;;15.77;;
20336;SDS011;10326;53.660;10.200;2022-12-05T12:28:44;18.35;;;14.57;;
20336;SDS011;10326;53.660;10.200;2022-12-05T12:31:34;18.95;;;14.68;;
20336;SDS011;10326;53.660;10.200;2022-12-05T12:34:27;19.10;;;14.02;;
20336;SDS011;10326;53.660;10.200;2022-12-05T12:37:10;19.50;;;14.43;;
20336;SDS011;10326;53.660;10.200;2022-12-05T12:39:48;20.98;;;14.52;;
20336;SDS011;10326;53.660;10.200;2022-12-05T12:42:23;18.88;;;13.90;;
20336;SDS011;10326;53.660;10.200;2022-12-05T12:45:03;18.63;;;14.48;;
20336;SDS011;10326;53.660;10.200;2022-12-05T12:47:59;20.27;;;14.38;;
20336;SDS011;10326;53.660;10.200;2022-12-05T12:50:37;18.02;;;13.98;;
20336;SDS011;10326;53.660;10.200;2022-12-05T12:53:15;21.00;;;15.05;;
20336;SDS011;10326;53.660;10.200;2022-12-05T12:56:14;20.65;;;14.65;;
20336;SDS011;10326;53.660;10.200;2022-12-05T12:59:03;19.88;;;14.27;;
20336;SDS011;10326;53.660;10.200;2022-12-05T13:01:48;19.60;;;14.55;;
20336;SDS011;10326;53.660;10.200;2022-12-05T13:04:21;20.73;;;14.77;;
20336;SDS011;10326;53.660;10.200;2022-12-05T13:06:54;20.90;;;15.40;;
20336;SDS011;10326;53.660;10.200;2022-12-05T13:09:26;18.58;;;14.18;;
20336;SDS011;10326;53.660;10.200;2022-12-05T13:11:59;21.10;;;14.50;;
20336;SDS011;10326;53.660;10.200;2022-12-05T13:14:33;19.08;;;14.52;;
20336;SDS011;10326;53.660;10.200;2022-12-05T13:17:06;18.42;;;14.40;;
20336;SDS011;10326;53.660;10.200;2022-12-05T13:19:40;19.27;;;14.93;;
20336;SDS011;10326;53.660;10.200;2022-12-05T13:22:10;18.23;;;13.98;;
20336;SDS011;10326;53.660;10.200;2022-12-05T13:24:38;19.67;;;14.27;;
20336;SDS011;10326;53.660;10.200;2022-12-05T13:27:07;18.27;;;13.75;;
20336;SDS011;10326;53.660;10.200;2022-12-05T13:29:41;18.40;;;14.35;;
20336;SDS011;10326;53.660;10.200;2022-12-05T13:32:26;19.08;;;14.45;;
20336;SDS011;10326;53.660;10.200;2022-12-05T13:34:56;18.15;;;14.20;;
20336;SDS011;10326;53.660;10.200;2022-12-05T13:37:27;18.15;;;13.88;;
20336;SDS011;10326;53.660;10.200;2022-12-05T13:40:26;17.90;;;13.90;;
20336;SDS011;10326;53.660;10.200;2022-12-05T13:43:13;20.10;;;13.70;;
20336;SDS011;10326;53.660;10.200;2022-12-05T13:45:51;17.38;;;13.57;;
20336;SDS011;10326;53.660;10.200;2022-12-05T13:48:30;18.13;;;14.25;;
20336;SDS011;10326;53.660;10.200;2022-12-05T13:51:00;19.85;;;14.48;;
20336;SDS011;10326;53.660;10.200;2022-12-05T13:53:33;17.58;;;13.88;;
20336;SDS011;10326;53.660;10.200;2022-12-05T13:56:04;17.85;;;13.85;;
20336;SDS011;10326;53.660;10.200;2022-12-05T13:58:50;17.58;;;13.68;;
20336;SDS011;10326;53.660;10.200;2022-12-05T14:01:40;17.25;;;14.45;;
20336;SDS011;10326;53.660;10.200;2022-12-05T14:10:10;16.80;;;13.60;;
20336;SDS011;10326;53.660;10.200;2022-12-05T14:12:53;17.55;;;13.50;;
20336;SDS011;10326;53.660;10.200;2022-12-05T14:15:27;17.45;;;13.07;;
20336;SDS011;10326;53.660;10.200;2022-12-05T14:18:04;16.42;;;13.00;;
20336;SDS011;10326;53.660;10.200;2022-12-05T14:20:45;17.48;;;13.40;;
20336;SDS011;10326;53.660;10.200;2022-12-05T14:26:51;18.75;;;14.20;;
20336;SDS011;10326;53.660;10.200;2022-12-05T14:29:36;17.63;;;12.75;;
20336;SDS011;10326;53.660;10.200;2022-12-05T14:32:20;18.60;;;13.75;;
20336;SDS011;10326;53.660;10.200;2022-12-05T14:34:56;17.75;;;14.30;;
20336;SDS011;10326;53.660;10.200;2022-12-05T14:37:32;18.48;;;13.98;;
20336;SDS011;10326;53.660;10.200;2022-12-05T14:40:02;17.20;;;12.80;;
20336;SDS011;10326;53.660;10.200;2022-12-05T14:42:49;16.23;;;11.63;;
20336;SDS011;10326;53.660;10.200;2022-12-05T14:45:22;15.00;;;12.57;;
20336;SDS011;10326;53.660;10.200;2022-12-05T14:47:54;15.73;;;12.93;;
20336;SDS011;10326;53.660;10.200;2022-12-05T14:50:34;17.35;;;12.80;;
20336;SDS011;10326;53.660;10.200;2022-12-05T14:56:02;17.52;;;13.07;;